Ayer, MA

6:34 AM EDT on August 31, 2014 (GMT -0400)
Ayer - Rt. 2A | Change Station
CLOSE
Current Station
Personal Weather Station
Location: Ayer, MA
Elevation: 331 ft
Nearby Weather Stations

Elev 331 ft 42.55 °N, 71.56 °W | Updated 1 minute ago

Overcast
Overcast
66.4 °F
Feels Like 66.4 °F
N
0.0
Wind Variable Wind from WSW
Gusts 0.0 mph

Today
High -- | Low -- °F
--% Chance of Precip.
Yesterday
High -- | Low -- °F
Precip. -- in
6:10 AM 7:22 PM
Waxing Crescent, 29% visible
Pressure 30.09 in
Visibility 10.0 miles
Clouds Scattered Clouds 2600 ft
Dew Point 66 °F
Humidity 97%
Rainfall 0.00 in
Snow Depth Not available.
UV 0 out of 12
Pollen 8.80 out of 12
Air Quality Not available.
Flu Activity Not available.
SPECI KFIT 311022Z AUTO VRB06KT 10SM SCT026 22/17 A3009 RMK AO2 T02170172

More Conditions Fewer Conditions

Pressure 30.09 in
Visibility 10.0 miles
Clouds Scattered Clouds 2600 ft
Dew Point 66 °F
Humidity 97%
Rainfall 0.00 in
Snow Depth Not available.
UV 0 out of 12
Pollen 8.80 out of 12
Air Quality Not available.
Flu Activity Not available.
SPECI KFIT 311022Z AUTO VRB06KT 10SM SCT026 22/17 A3009 RMK AO2 T02170172

More Conditions Fewer Conditions

10-Day Weather Forecast

Almanac

Astronomy

Aug. 31, 2014 Rise Set
Actual Time 6:10 AM EDT 7:22 PM EDT
Civil Twilight 5:41 AM EDT 7:51 PM EDT
Nautical Twilight 5:06 AM EDT 8:25 PM EDT
Astronomical Twilight 4:29 AM EDT 9:02 PM EDT
Moon 12:01 PM EDT 10:26 PM EDT
Length of Visible Light 14h 10m
Length of Day
13h 12m
Tomorrow will be 2m 46s shorter.
Waxing Crescent, 29% of the Moon is Illuminated
Today
Waxing Crescent
Sep 2
First Quarter
Sep 8
Full
Sep 15
Last Quarter
Sep 24
New

Today's Extremes

State Highs State Lows

Community

WunderPhotos

Upload Photos

1,748,834 photos uploaded!

Nearby

Air Quality

  Air Quality AQ Index Pollutant
Sunday Good
PM2.5
Sunday Good
OZONE
Monday Moderate
PM2.5
Monday Good
OZONE
Tuesday Moderate
PM2.5
Tuesday Good
OZONE

Snow Depth

Station Depth Elevation
No new snow has been reported.

Earthquake Activity

City Distance Mag. Time & Date
No recent earthquake activity has been reported nearby.
Minimum magnitude displayed is 2.5.

Coastal Water Temperatures

Place Temperature
Boston, MA 68.0 °F
Providence, RI 71.1 °F
Fall River, MA 73.0 °F
Conimicut Light, RI 72.0 °F

Nearby Weather Stations